Time;durP1;ratioP1;P1;durP2;ratioP2;P2;SDS_P1;SDS_P2;PMS_P1;PMS_P2;Temp;Humidity;BMP_temperature;BMP_pressure;BME280_temperature;BME280_humidity;BME280_pressure;Samples;Min_cycle;Max_cycle;Signal;HPM_P1;HPM_P2
2023/04/18 00:00:31;;;;;;;21.23;11.05;;;;;;;;;;5019493;28;20043;-64
2023/04/18 00:02:57;;;;;;;18.02;10.30;;;;;;;;;;5017860;28;20052;-60
2023/04/18 00:05:22;;;;;;;18.63;10.27;;;;;;;;;;5018351;28;20036;-63
2023/04/18 00:07:48;;;;;;;27.02;11.75;;;;;;;;;;5016535;28;20399;-64
2023/04/18 00:10:13;;;;;;;16.20;9.48;;;;;;;;;;5010544;28;20058;-64
2023/04/18 00:12:38;;;;;;;21.25;10.57;;;;;;;;;;5007662;28;20025;-61
2023/04/18 00:15:06;;;;;;;23.77;10.63;;;;;;;;;;5019195;28;20029;-63
2023/04/18 00:17:31;;;;;;;20.30;10.90;;;;;;;;;;5019032;28;20026;-62
2023/04/18 00:20:03;;;;;;;19.05;11.13;;;;;;;;;;5020001;28;20034;-64
2023/04/18 00:22:29;;;;;;;19.65;10.52;;;;;;;;;;5018515;28;20047;-63
2023/04/18 00:24:54;;;;;;;20.38;10.73;;;;;;;;;;5012524;28;20403;-63
2023/04/18 00:27:20;;;;;;;20.13;11.35;;;;;;;;;;5015692;28;20026;-64
2023/04/18 00:29:46;;;;;;;17.27;9.90;;;;;;;;;;5012000;28;20021;-62
2023/04/18 00:32:11;;;;;;;18.63;9.63;;;;;;;;;;5014025;28;20029;-63
2023/04/18 00:34:36;;;;;;;19.10;10.52;;;;;;;;;;5019832;28;20041;-61
2023/04/18 00:37:01;;;;;;;16.02;9.45;;;;;;;;;;5018152;28;20438;-62
2023/04/18 00:39:27;;;;;;;19.13;10.75;;;;;;;;;;5016252;28;20128;-63
2023/04/18 00:41:52;;;;;;;20.45;9.98;;;;;;;;;;5016025;28;20026;-62
2023/04/18 00:44:17;;;;;;;22.77;12.10;;;;;;;;;;5019338;28;20100;-63
2023/04/18 00:46:42;;;;;;;20.80;10.82;;;;;;;;;;5014868;28;20021;-65
2023/04/18 00:49:08;;;;;;;19.25;10.15;;;;;;;;;;5014779;28;20021;-60
2023/04/18 00:51:34;;;;;;;22.98;9.95;;;;;;;;;;5015497;28;20025;-63
2023/04/18 00:53:59;;;;;;;19.27;10.82;;;;;;;;;;5019683;28;20064;-62
2023/04/18 00:56:25;;;;;;;25.13;12.48;;;;;;;;;;5020717;28;20545;-63
2023/04/18 00:58:50;;;;;;;22.38;10.90;;;;;;;;;;5009651;28;20069;-62
2023/04/18 01:01:16;;;;;;;22.23;11.93;;;;;;;;;;5018023;28;20060;-61
2023/04/18 01:03:42;;;;;;;25.05;10.95;;;;;;;;;;5013404;28;20564;-64
2023/04/18 01:06:07;;;;;;;23.35;12.05;;;;;;;;;;5017386;28;20025;-60
2023/04/18 01:08:33;;;;;;;23.30;11.07;;;;;;;;;;5020263;28;20605;-63
2023/04/18 01:10:58;;;;;;;28.75;12.80;;;;;;;;;;5018946;28;20025;-64
2023/04/18 01:13:23;;;;;;;27.40;12.43;;;;;;;;;;5016535;28;20592;-63
2023/04/18 01:15:49;;;;;;;26.10;12.18;;;;;;;;;;5014319;28;20041;-63
2023/04/18 01:18:17;;;;;;;33.13;14.20;;;;;;;;;;5010820;28;20981;-62
2023/04/18 01:20:45;;;;;;;29.08;14.05;;;;;;;;;;5011231;28;20517;-64
2023/04/18 01:23:10;;;;;;;29.20;13.60;;;;;;;;;;5009659;28;20029;-64
2023/04/18 01:25:36;;;;;;;30.58;12.90;;;;;;;;;;5013001;28;20562;-63
2023/04/18 01:28:01;;;;;;;30.92;14.60;;;;;;;;;;5019501;28;20026;-62
2023/04/18 01:30:26;;;;;;;30.85;14.23;;;;;;;;;;5019389;28;20100;-64
2023/04/18 01:32:52;;;;;;;32.63;14.95;;;;;;;;;;5017593;28;20407;-63
2023/04/18 01:35:17;;;;;;;34.75;16.52;;;;;;;;;;5014706;28;20060;-63
2023/04/18 01:37:42;;;;;;;36.42;16.50;;;;;;;;;;5016007;28;20172;-63
2023/04/18 01:40:08;;;;;;;42.25;16.77;;;;;;;;;;5019676;28;20029;-63
2023/04/18 01:42:33;;;;;;;32.33;15.27;;;;;;;;;;5009901;28;20099;-64
2023/04/18 01:44:58;;;;;;;40.15;15.55;;;;;;;;;;5013668;28;20453;-64
2023/04/18 01:47:24;;;;;;;37.22;16.38;;;;;;;;;;5016016;28;20018;-62
2023/04/18 01:49:49;;;;;;;38.95;17.80;;;;;;;;;;5018739;28;20055;-65
2023/04/18 01:52:14;;;;;;;33.60;16.27;;;;;;;;;;5017509;28;20022;-63
2023/04/18 01:54:40;;;;;;;27.20;15.75;;;;;;;;;;5007221;28;20029;-64
2023/04/18 01:57:05;;;;;;;37.25;16.42;;;;;;;;;;5013492;28;20033;-64
2023/04/18 01:59:30;;;;;;;34.00;16.92;;;;;;;;;;5019083;28;20402;-64
2023/04/18 02:01:55;;;;;;;34.45;18.08;;;;;;;;;;5012076;28;20025;-62
2023/04/18 02:04:21;;;;;;;37.88;17.55;;;;;;;;;;5013830;28;20450;-64
2023/04/18 02:06:46;;;;;;;35.65;16.55;;;;;;;;;;5018044;28;20014;-64
2023/04/18 02:09:11;;;;;;;40.30;15.85;;;;;;;;;;5017510;28;20022;-64
2023/04/18 02:11:36;;;;;;;30.50;16.38;;;;;;;;;;5014696;28;20040;-62
2023/04/18 02:14:02;;;;;;;32.50;16.50;;;;;;;;;;5017660;28;20071;-65
2023/04/18 02:16:27;;;;;;;30.85;15.80;;;;;;;;;;5014006;28;20052;-63
2023/04/18 02:18:52;;;;;;;29.77;16.88;;;;;;;;;;5018011;28;20040;-60
2023/04/18 02:21:17;;;;;;;32.83;17.27;;;;;;;;;;5018205;28;20203;-65
2023/04/18 02:23:43;;;;;;;32.05;16.20;;;;;;;;;;5008467;28;20010;-63
2023/04/18 02:26:08;;;;;;;29.95;16.10;;;;;;;;;;5019559;28;20116;-64
2023/04/18 02:28:33;;;;;;;32.35;16.83;;;;;;;;;;5014325;28;20022;-65
2023/04/18 02:30:58;;;;;;;29.05;15.93;;;;;;;;;;5021700;28;20029;-63
2023/04/18 02:33:24;;;;;;;31.23;16.67;;;;;;;;;;5028192;28;20040;-60
2023/04/18 02:35:49;;;;;;;32.95;16.92;;;;;;;;;;5021429;28;20422;-64
2023/04/18 02:38:14;;;;;;;27.65;16.17;;;;;;;;;;5015898;28;20022;-65
2023/04/18 02:40:39;;;;;;;29.65;17.10;;;;;;;;;;5019694;28;20418;-65
2023/04/18 02:43:05;;;;;;;28.02;16.05;;;;;;;;;;5008864;28;20022;-65
2023/04/18 02:45:31;;;;;;;29.88;16.02;;;;;;;;;;5017474;28;20394;-64
2023/04/18 02:47:56;;;;;;;33.35;16.65;;;;;;;;;;5022679;28;20067;-64
2023/04/18 02:50:22;;;;;;;30.55;16.88;;;;;;;;;;5018259;28;20033;-65
2023/04/18 02:52:47;;;;;;;28.58;15.85;;;;;;;;;;5017121;28;20063;-62
2023/04/18 02:55:12;;;;;;;28.08;16.83;;;;;;;;;;5019677;28;21007;-62
2023/04/18 02:57:38;;;;;;;30.90;17.25;;;;;;;;;;5021966;28;20644;-64
2023/04/18 03:00:05;;;;;;;28.98;16.90;;;;;;;;;;5019774;28;20052;-64
2023/04/18 03:02:30;;;;;;;31.83;17.33;;;;;;;;;;5014831;28;20021;-63
2023/04/18 03:04:55;;;;;;;26.48;16.85;;;;;;;;;;5021801;28;20044;-64
2023/04/18 03:07:21;;;;;;;27.88;15.27;;;;;;;;;;5018763;28;20021;-62
2023/04/18 03:09:46;;;;;;;32.45;16.00;;;;;;;;;;5020738;28;20017;-63
2023/04/18 03:12:11;;;;;;;28.70;17.38;;;;;;;;;;5020750;28;20028;-63
2023/04/18 03:14:36;;;;;;;29.17;16.77;;;;;;;;;;5003834;28;20028;-62
2023/04/18 03:17:03;;;;;;;25.42;16.55;;;;;;;;;;5017438;28;20029;-61
2023/04/18 03:19:28;;;;;;;29.75;17.05;;;;;;;;;;5020340;28;20064;-65
2023/04/18 03:21:53;;;;;;;25.42;15.05;;;;;;;;;;5017185;28;20068;-63
2023/04/18 03:24:19;;;;;;;25.23;15.07;;;;;;;;;;5018979;28;20026;-63
2023/04/18 03:26:44;;;;;;;28.02;16.92;;;;;;;;;;5017557;28;20041;-63
2023/04/18 03:29:10;;;;;;;24.70;15.88;;;;;;;;;;5019138;28;20107;-62
2023/04/18 03:31:35;;;;;;;28.38;15.85;;;;;;;;;;5016132;28;20075;-62
2023/04/18 03:34:00;;;;;;;25.33;15.45;;;;;;;;;;5014646;28;20396;-64
2023/04/18 03:36:26;;;;;;;25.65;15.27;;;;;;;;;;5020570;28;20116;-63
2023/04/18 03:38:52;;;;;;;27.38;15.30;;;;;;;;;;5018773;28;20025;-61
2023/04/18 03:41:17;;;;;;;27.08;15.48;;;;;;;;;;5013353;28;20030;-63
2023/04/18 03:43:43;;;;;;;28.95;15.25;;;;;;;;;;5014368;28;20024;-63
2023/04/18 03:46:08;;;;;;;24.58;14.90;;;;;;;;;;5013907;28;20021;-63
2023/04/18 03:48:35;;;;;;;24.27;14.25;;;;;;;;;;5020936;28;20022;-64
2023/04/18 03:51:01;;;;;;;30.02;14.35;;;;;;;;;;5012842;28;20032;-63
2023/04/18 03:53:26;;;;;;;26.40;15.00;;;;;;;;;;5019025;28;20030;-64
2023/04/18 03:55:51;;;;;;;24.83;12.95;;;;;;;;;;5014912;28;20131;-63
2023/04/18 03:58:22;;;;;;;22.52;13.18;;;;;;;;;;5013438;28;20057;-67
2023/04/18 04:00:47;;;;;;;25.20;13.02;;;;;;;;;;5018643;28;20025;-63
2023/04/18 04:03:12;;;;;;;18.95;11.75;;;;;;;;;;5021030;28;20452;-65
2023/04/18 04:05:37;;;;;;;24.35;12.45;;;;;;;;;;5018334;28;20534;-65
2023/04/18 04:08:03;;;;;;;19.75;10.10;;;;;;;;;;5017450;28;20013;-64
2023/04/18 04:10:28;;;;;;;18.38;11.65;;;;;;;;;;5012602;28;20025;-61
2023/04/18 04:12:53;;;;;;;19.10;11.68;;;;;;;;;;5015053;28;20029;-64
2023/04/18 04:15:19;;;;;;;19.45;12.07;;;;;;;;;;5014023;28;20389;-64
2023/04/18 04:17:44;;;;;;;19.98;11.98;;;;;;;;;;5014149;28;20443;-63
2023/04/18 04:20:11;;;;;;;20.50;11.05;;;;;;;;;;5016819;28;20029;-64
2023/04/18 04:22:36;;;;;;;20.48;11.75;;;;;;;;;;5018616;28;20036;-64
2023/04/18 04:25:02;;;;;;;20.63;11.75;;;;;;;;;;5029531;28;20017;-64
2023/04/18 04:27:28;;;;;;;20.15;10.48;;;;;;;;;;5029950;28;20060;-63
2023/04/18 04:29:53;;;;;;;21.52;11.43;;;;;;;;;;5028996;28;20060;-63
2023/04/18 04:32:21;;;;;;;19.08;11.32;;;;;;;;;;5020502;28;20021;-62
2023/04/18 04:34:46;;;;;;;21.70;11.80;;;;;;;;;;5015614;28;20064;-64
2023/04/18 04:37:17;;;;;;;18.35;10.80;;;;;;;;;;5015679;28;20063;-65
2023/04/18 04:39:42;;;;;;;23.52;10.80;;;;;;;;;;5012831;28;21279;-66
2023/04/18 04:42:08;;;;;;;15.88;10.43;;;;;;;;;;5006718;28;20041;-66
2023/04/18 04:44:34;;;;;;;22.10;11.43;;;;;;;;;;5016483;28;20391;-64
2023/04/18 04:46:59;;;;;;;17.98;10.48;;;;;;;;;;5006209;28;20033;-62
2023/04/18 04:49:24;;;;;;;18.63;11.38;;;;;;;;;;5013719;28;20018;-67
2023/04/18 04:51:49;;;;;;;18.35;10.23;;;;;;;;;;5013573;28;20560;-64
2023/04/18 04:54:15;;;;;;;21.60;11.00;;;;;;;;;;5008892;28;20032;-63
2023/04/18 04:56:40;;;;;;;22.70;10.80;;;;;;;;;;5008427;28;20025;-61
2023/04/18 04:59:06;;;;;;;18.17;11.10;;;;;;;;;;5016680;28;20029;-68
2023/04/18 05:01:31;;;;;;;16.60;10.48;;;;;;;;;;5018745;28;20026;-61
2023/04/18 05:03:56;;;;;;;19.35;11.10;;;;;;;;;;5014276;28;20033;-64
2023/04/18 05:06:22;;;;;;;20.73;11.10;;;;;;;;;;5013233;28;20033;-64
2023/04/18 05:08:48;;;;;;;20.00;10.68;;;;;;;;;;5011378;28;20079;-64
2023/04/18 05:11:14;;;;;;;19.80;11.50;;;;;;;;;;5010731;28;20782;-62
2023/04/18 05:13:39;;;;;;;18.73;9.80;;;;;;;;;;5013387;28;20026;-61
2023/04/18 05:16:05;;;;;;;26.52;10.20;;;;;;;;;;5018136;28;20025;-66
2023/04/18 05:18:30;;;;;;;17.83;10.77;;;;;;;;;;5019429;28;20033;-63
2023/04/18 05:20:56;;;;;;;17.10;9.95;;;;;;;;;;5012680;28;20053;-63
2023/04/18 05:23:21;;;;;;;17.75;9.70;;;;;;;;;;5012565;28;20029;-65
2023/04/18 05:25:46;;;;;;;17.20;9.95;;;;;;;;;;5015020;28;20096;-62
2023/04/18 05:28:12;;;;;;;23.45;10.43;;;;;;;;;;5012524;28;20650;-64
2023/04/18 05:30:38;;;;;;;20.45;11.05;;;;;;;;;;5011865;28;20445;-63
2023/04/18 05:33:03;;;;;;;17.40;9.95;;;;;;;;;;5015808;28;20033;-64
2023/04/18 05:38:00;;;;;;;15.23;9.30;;;;;;;;;;5015705;28;20061;-68
2023/04/18 05:40:26;;;;;;;20.35;9.48;;;;;;;;;;5015248;28;20025;-68
2023/04/18 05:42:51;;;;;;;18.25;9.40;;;;;;;;;;5014126;28;20021;-69
2023/04/18 05:45:16;;;;;;;17.20;9.90;;;;;;;;;;5012741;28;20032;-68
2023/04/18 05:47:42;;;;;;;16.55;9.02;;;;;;;;;;5017992;28;20021;-67
2023/04/18 05:50:07;;;;;;;17.60;10.38;;;;;;;;;;5019092;28;20026;-66
2023/04/18 05:52:33;;;;;;;18.40;9.68;;;;;;;;;;5017571;28;20124;-68
2023/04/18 05:54:58;;;;;;;20.55;9.50;;;;;;;;;;5028846;28;20108;-68
2023/04/18 05:57:23;;;;;;;16.60;9.48;;;;;;;;;;5017533;28;20037;-68
2023/04/18 05:59:48;;;;;;;17.67;9.07;;;;;;;;;;5018994;28;20044;-69
2023/04/18 06:02:13;;;;;;;20.48;9.73;;;;;;;;;;5022915;28;20041;-68
2023/04/18 06:04:42;;;;;;;20.60;10.45;;;;;;;;;;5023388;28;20051;-68
2023/04/18 06:07:08;;;;;;;17.42;9.00;;;;;;;;;;5022306;28;20477;-70
2023/04/18 06:09:33;;;;;;;16.02;9.90;;;;;;;;;;5023775;28;20108;-67
2023/04/18 06:11:58;;;;;;;16.23;9.32;;;;;;;;;;5023879;28;20029;-68
2023/04/18 06:14:24;;;;;;;19.95;10.45;;;;;;;;;;5023931;28;20036;-68
2023/04/18 06:16:50;;;;;;;26.88;10.13;;;;;;;;;;5021033;28;20406;-66
2023/04/18 06:19:15;;;;;;;18.80;9.88;;;;;;;;;;5009927;28;20663;-67
2023/04/18 06:21:41;;;;;;;19.50;9.60;;;;;;;;;;5008333;28;20499;-66
2023/04/18 06:24:06;;;;;;;19.63;10.65;;;;;;;;;;5017403;28;20085;-68
2023/04/18 06:26:32;;;;;;;21.60;10.55;;;;;;;;;;5021900;28;20095;-67
2023/04/18 06:28:57;;;;;;;17.05;9.82;;;;;;;;;;5023151;28;20049;-68
2023/04/18 06:31:22;;;;;;;18.80;10.02;;;;;;;;;;5017298;28;20087;-67
2023/04/18 06:33:47;;;;;;;17.85;9.90;;;;;;;;;;5019418;28;20114;-67
2023/04/18 06:36:12;;;;;;;21.17;10.38;;;;;;;;;;5007750;28;20109;-70
2023/04/18 06:38:38;;;;;;;16.70;9.57;;;;;;;;;;5023325;28;20114;-71
2023/04/18 06:41:03;;;;;;;18.13;9.63;;;;;;;;;;5018281;28;20025;-71
2023/04/18 06:43:28;;;;;;;18.40;9.93;;;;;;;;;;5014042;28;20025;-68
2023/04/18 06:45:55;;;;;;;21.45;10.50;;;;;;;;;;4995557;28;20033;-68
2023/04/18 06:48:20;;;;;;;19.40;8.95;;;;;;;;;;4999228;28;20018;-69
2023/04/18 06:50:45;;;;;;;16.80;9.23;;;;;;;;;;5005641;28;20033;-69
2023/04/18 06:53:11;;;;;;;19.58;9.60;;;;;;;;;;5001216;28;20068;-67
2023/04/18 06:55:36;;;;;;;21.73;9.00;;;;;;;;;;5005783;28;20034;-69
2023/04/18 06:58:01;;;;;;;15.23;8.80;;;;;;;;;;5008212;28;20045;-68
2023/04/18 07:00:26;;;;;;;14.60;7.65;;;;;;;;;;5002798;28;20705;-69
2023/04/18 07:02:52;;;;;;;14.35;8.70;;;;;;;;;;5007936;28;20398;-69
2023/04/18 07:05:17;;;;;;;19.83;9.60;;;;;;;;;;5002963;28;20493;-68
2023/04/18 07:07:42;;;;;;;16.67;9.32;;;;;;;;;;5006551;28;20121;-71
2023/04/18 07:10:08;;;;;;;17.92;9.38;;;;;;;;;;5008651;28;20030;-68
2023/04/18 07:12:34;;;;;;;14.05;7.50;;;;;;;;;;5002200;28;20542;-70
2023/04/18 07:14:59;;;;;;;15.43;8.65;;;;;;;;;;5004918;28;20033;-68
2023/04/18 07:17:25;;;;;;;20.38;8.38;;;;;;;;;;5002478;28;20396;-70
2023/04/18 07:19:50;;;;;;;17.42;8.00;;;;;;;;;;5005649;28;20269;-68
2023/04/18 07:22:15;;;;;;;15.43;7.75;;;;;;;;;;5004713;28;20767;-67
2023/04/18 07:24:41;;;;;;;13.32;7.78;;;;;;;;;;5002748;28;20028;-68
2023/04/18 07:27:08;;;;;;;13.95;8.07;;;;;;;;;;5000240;28;20020;-68
2023/04/18 07:29:33;;;;;;;15.23;8.65;;;;;;;;;;5005611;28;20475;-67
2023/04/18 07:31:58;;;;;;;21.35;8.90;;;;;;;;;;5000687;28;20040;-69
2023/04/18 07:34:25;;;;;;;15.38;8.32;;;;;;;;;;5002844;28;20030;-67
2023/04/18 07:36:50;;;;;;;21.65;9.07;;;;;;;;;;5001834;28;20096;-68
2023/04/18 07:39:15;;;;;;;15.52;8.00;;;;;;;;;;5007058;28;20026;-69
2023/04/18 07:41:41;;;;;;;18.77;9.15;;;;;;;;;;5003940;28;20095;-68
2023/04/18 07:44:06;;;;;;;16.60;8.55;;;;;;;;;;5004609;28;20022;-69
2023/04/18 07:46:32;;;;;;;14.55;8.15;;;;;;;;;;5002890;28;20018;-69
2023/04/18 07:48:58;;;;;;;16.02;8.13;;;;;;;;;;5007639;28;20108;-68
2023/04/18 07:51:25;;;;;;;15.23;8.85;;;;;;;;;;5008449;28;20098;-68
2023/04/18 07:53:50;;;;;;;14.23;8.55;;;;;;;;;;5008209;28;20030;-68
2023/04/18 07:56:16;;;;;;;20.70;8.20;;;;;;;;;;5001349;28;20036;-69
2023/04/18 07:58:41;;;;;;;15.30;7.90;;;;;;;;;;5003700;28;20033;-69
2023/04/18 08:01:07;;;;;;;16.92;7.70;;;;;;;;;;5001652;28;20029;-69
2023/04/18 08:03:35;;;;;;;15.77;9.32;;;;;;;;;;5005533;28;20097;-67
2023/04/18 08:06:01;;;;;;;17.52;8.00;;;;;;;;;;5003095;28;20668;-70
2023/04/18 08:08:26;;;;;;;13.90;7.03;;;;;;;;;;5004227;28;20030;-68
2023/04/18 08:10:51;;;;;;;16.00;8.27;;;;;;;;;;5002450;28;20873;-68
2023/04/18 08:13:17;;;;;;;15.25;8.48;;;;;;;;;;5002932;28;20144;-66
2023/04/18 08:15:42;;;;;;;17.67;8.13;;;;;;;;;;5004256;28;20022;-70
2023/04/18 08:18:07;;;;;;;18.48;8.50;;;;;;;;;;5001098;28;20084;-70
2023/04/18 08:20:35;;;;;;;17.17;8.55;;;;;;;;;;5006328;28;20107;-69
2023/04/18 08:23:00;;;;;;;14.77;7.10;;;;;;;;;;5004325;28;20431;-69
2023/04/18 08:25:25;;;;;;;17.98;7.05;;;;;;;;;;5002511;28;20712;-68
2023/04/18 08:27:51;;;;;;;15.38;7.13;;;;;;;;;;5006973;28;20618;-68
2023/04/18 08:30:16;;;;;;;16.77;7.32;;;;;;;;;;5006119;28;20153;-68
2023/04/18 08:32:41;;;;;;;18.80;8.98;;;;;;;;;;5006696;28;20545;-68
2023/04/18 08:35:07;;;;;;;16.20;8.10;;;;;;;;;;5000212;28;20036;-71
2023/04/18 08:37:34;;;;;;;15.02;7.72;;;;;;;;;;5002826;28;20032;-70
2023/04/18 08:39:59;;;;;;;13.00;7.07;;;;;;;;;;5008659;28;20026;-70
2023/04/18 08:42:25;;;;;;;14.07;7.40;;;;;;;;;;5001790;28;20033;-69
2023/04/18 08:44:51;;;;;;;11.65;7.03;;;;;;;;;;5001816;28;20021;-67
2023/04/18 08:47:18;;;;;;;14.98;7.35;;;;;;;;;;5004461;28;20773;-65
2023/04/18 08:49:44;;;;;;;13.80;7.32;;;;;;;;;;5004484;28;20021;-67
2023/04/18 08:52:12;;;;;;;16.98;7.78;;;;;;;;;;5001807;28;20033;-69
2023/04/18 08:54:40;;;;;;;15.02;7.25;;;;;;;;;;5003582;28;20033;-68
2023/04/18 08:57:06;;;;;;;11.65;6.97;;;;;;;;;;5000963;28;20041;-69
2023/04/18 08:59:34;;;;;;;15.32;7.35;;;;;;;;;;5003977;28;20029;-69
2023/04/18 09:02:00;;;;;;;12.48;7.03;;;;;;;;;;5003715;28;20113;-69
2023/04/18 09:04:36;;;;;;;13.35;7.80;;;;;;;;;;5003087;28;20096;-70
2023/04/18 09:07:01;;;;;;;16.73;8.88;;;;;;;;;;4995928;28;20065;-69
2023/04/18 09:09:27;;;;;;;18.15;7.72;;;;;;;;;;4999695;28;20494;-70
2023/04/18 09:12:08;;;;;;;14.18;7.38;;;;;;;;;;5000374;28;20026;-69
2023/04/18 09:14:39;;;;;;;15.00;8.10;;;;;;;;;;5003838;28;20037;-67
2023/04/18 09:17:05;;;;;;;14.15;6.95;;;;;;;;;;4985501;28;20029;-72
2023/04/18 09:19:32;;;;;;;18.70;8.27;;;;;;;;;;4999949;28;20029;-67
2023/04/18 09:21:58;;;;;;;14.68;7.88;;;;;;;;;;5000137;28;20060;-68
2023/04/18 09:24:25;;;;;;;14.13;7.55;;;;;;;;;;5001854;28;20539;-69
2023/04/18 09:26:54;;;;;;;15.25;8.35;;;;;;;;;;5000662;28;20018;-67
2023/04/18 09:29:21;;;;;;;;;;;;;;;;;;5002045;28;20029;-69
2023/04/18 09:32:00;;;;;;;25.55;9.15;;;;;;;;;;5004495;28;19920;-69
2023/04/18 09:34:26;;;;;;;;;;;;;;;;;;5001073;28;20552;-68
2023/04/18 09:37:05;;;;;;;13.13;7.95;;;;;;;;;;4997511;28;20052;-68
2023/04/18 09:39:30;;;;;;;16.55;7.78;;;;;;;;;;5001230;28;20403;-69
2023/04/18 09:41:57;;;;;;;17.25;8.63;;;;;;;;;;5002110;28;20026;-69
2023/04/18 09:44:22;;;;;;;15.43;7.97;;;;;;;;;;5007341;28;20018;-68
2023/04/18 09:46:48;;;;;;;15.50;8.50;;;;;;;;;;5003406;28;20901;-68
2023/04/18 09:49:14;;;;;;;17.15;8.00;;;;;;;;;;5004124;28;20080;-69
2023/04/18 09:51:40;;;;;;;14.93;7.93;;;;;;;;;;5001905;28;20026;-68
2023/04/18 09:54:07;;;;;;;21.08;9.23;;;;;;;;;;5001861;28;20036;-71
2023/04/18 09:56:33;;;;;;;18.65;9.35;;;;;;;;;;5000552;28;20453;-69
2023/04/18 09:59:08;;;;;;;16.77;9.02;;;;;;;;;;4999884;28;20605;-67
2023/04/18 10:01:33;;;;;;;20.00;8.43;;;;;;;;;;5001811;28;20036;-69
2023/04/18 10:04:00;;;;;;;19.67;9.02;;;;;;;;;;5000660;28;20665;-68
2023/04/18 10:06:27;;;;;;;14.55;8.02;;;;;;;;;;5004462;28;20606;-68
2023/04/18 10:08:53;;;;;;;12.32;7.65;;;;;;;;;;4999867;28;20045;-67
2023/04/18 10:11:18;;;;;;;13.13;7.70;;;;;;;;;;5002643;28;20582;-68
2023/04/18 10:13:46;;;;;;;16.60;7.78;;;;;;;;;;5003179;28;20041;-68
2023/04/18 10:16:13;;;;;;;16.48;7.63;;;;;;;;;;4996024;28;20030;-69
2023/04/18 10:18:38;;;;;;;14.00;7.70;;;;;;;;;;5004840;28;20102;-68
2023/04/18 10:21:03;;;;;;;17.73;8.95;;;;;;;;;;5003108;28;20026;-69
2023/04/18 10:23:35;;;;;;;14.00;7.32;;;;;;;;;;4999529;28;20030;-69
2023/04/18 10:26:07;;;;;;;17.35;8.27;;;;;;;;;;5001202;28;20321;-67
2023/04/18 10:28:48;;;;;;;18.13;9.10;;;;;;;;;;5015899;28;20033;-69
2023/04/18 10:31:15;;;;;;;17.00;8.55;;;;;;;;;;5002683;28;20064;-70
2023/04/18 10:33:45;;;;;;;19.35;8.90;;;;;;;;;;5001698;28;20184;-69
2023/04/18 10:36:11;;;;;;;16.02;9.65;;;;;;;;;;4999549;28;20026;-69
2023/04/18 10:38:46;;;;;;;20.05;9.70;;;;;;;;;;4996228;28;20030;-67
2023/04/18 10:41:27;;;;;;;25.00;12.73;;;;;;;;;;4997855;28;20434;-70
2023/04/18 10:44:14;;;;;;;23.23;12.30;;;;;;;;;;4999798;28;20065;-69
2023/04/18 10:46:40;;;;;;;22.23;9.90;;;;;;;;;;4995081;28;20019;-70
2023/04/18 10:49:16;;;;;;;21.33;11.05;;;;;;;;;;5000042;28;20017;-69
2023/04/18 10:51:41;;;;;;;16.98;9.02;;;;;;;;;;5000985;28;20021;-69
2023/04/18 10:54:11;;;;;;;19.90;9.55;;;;;;;;;;5003070;28;20044;-69
2023/04/18 10:56:38;;;;;;;19.05;10.00;;;;;;;;;;5003489;28;20014;-67
2023/04/18 10:59:03;;;;;;;17.92;11.73;;;;;;;;;;5005805;28;20025;-70
2023/04/18 11:01:31;;;;;;;17.85;10.40;;;;;;;;;;5004409;28;20044;-70
2023/04/18 11:03:56;;;;;;;18.90;10.23;;;;;;;;;;5008263;28;20033;-70
2023/04/18 11:06:22;;;;;;;17.70;10.13;;;;;;;;;;5007329;28;20706;-69
2023/04/18 11:08:50;;;;;;;16.35;9.38;;;;;;;;;;5007825;28;20483;-69
2023/04/18 11:11:16;;;;;;;15.02;9.15;;;;;;;;;;5005760;28;20034;-70
2023/04/18 11:13:57;;;;;;;17.63;9.82;;;;;;;;;;5005604;28;20037;-69
2023/04/18 11:16:29;;;;;;;17.55;8.82;;;;;;;;;;4998090;28;20025;-68
2023/04/18 11:18:55;;;;;;;15.50;8.85;;;;;;;;;;5000784;28;20049;-68
2023/04/18 11:21:20;;;;;;;16.15;8.48;;;;;;;;;;5003229;28;20121;-69
2023/04/18 11:23:46;;;;;;;17.85;8.90;;;;;;;;;;5001625;28;20026;-70
2023/04/18 11:26:16;;;;;;;16.17;9.70;;;;;;;;;;5001010;28;20025;-68
2023/04/18 11:28:41;;;;;;;15.52;8.98;;;;;;;;;;4997138;28;20092;-70
2023/04/18 11:31:07;;;;;;;16.80;9.10;;;;;;;;;;4999394;28;20083;-68
2023/04/18 11:33:32;;;;;;;15.60;9.00;;;;;;;;;;4998528;28;20054;-68
2023/04/18 11:35:58;;;;;;;13.95;8.77;;;;;;;;;;5015287;23;20072;-66
2023/04/18 11:38:27;;;;;;;20.10;9.45;;;;;;;;;;5013482;28;20116;-65
2023/04/18 11:40:52;;;;;;;18.60;10.18;;;;;;;;;;5021988;28;20114;-63
2023/04/18 11:43:21;;;;;;;15.95;9.05;;;;;;;;;;5020282;28;20475;-61
2023/04/18 11:45:50;;;;;;;16.50;9.27;;;;;;;;;;5016833;28;20017;-67
2023/04/18 11:48:16;;;;;;;17.77;10.07;;;;;;;;;;5000205;28;20139;-65
2023/04/18 11:50:41;;;;;;;18.38;9.63;;;;;;;;;;4995113;28;20468;-68
2023/04/18 11:53:06;;;;;;;17.27;9.98;;;;;;;;;;4997320;28;20440;-67
2023/04/18 11:55:31;;;;;;;14.43;8.88;;;;;;;;;;4996871;28;20866;-67
2023/04/18 11:57:57;;;;;;;17.40;10.20;;;;;;;;;;4999121;28;20715;-64
2023/04/18 12:00:30;;;;;;;16.42;9.82;;;;;;;;;;4997672;28;20156;-66
2023/04/18 12:02:55;;;;;;;16.60;8.85;;;;;;;;;;4993181;28;20688;-65
2023/04/18 12:05:30;;;;;;;16.70;9.57;;;;;;;;;;4984206;28;20109;-66
2023/04/18 12:08:03;;;;;;;15.55;9.25;;;;;;;;;;4988189;28;20037;-65
2023/04/18 12:10:29;;;;;;;17.33;9.10;;;;;;;;;;4994533;28;20100;-66
2023/04/18 12:12:57;;;;;;;16.42;9.23;;;;;;;;;;4994385;28;20510;-66
2023/04/18 12:15:25;;;;;;;19.17;10.20;;;;;;;;;;4991152;28;20745;-65
2023/04/18 12:17:51;;;;;;;16.88;9.25;;;;;;;;;;4991187;28;20022;-65
2023/04/18 12:20:17;;;;;;;20.30;10.40;;;;;;;;;;4990005;28;20112;-65
2023/04/18 12:22:42;;;;;;;19.40;9.82;;;;;;;;;;4996718;28;20396;-64
2023/04/18 12:25:23;;;;;;;19.17;9.70;;;;;;;;;;4996061;28;20034;-67
2023/04/18 12:27:54;;;;;;;19.17;10.55;;;;;;;;;;4997210;28;20533;-67
2023/04/18 12:30:21;;;;;;;17.40;9.77;;;;;;;;;;4994597;28;20033;-66
2023/04/18 12:32:50;;;;;;;17.25;9.93;;;;;;;;;;4994983;28;20040;-63
2023/04/18 12:35:16;;;;;;;20.85;10.48;;;;;;;;;;4994073;28;20174;-64
2023/04/18 12:37:41;;;;;;;18.90;10.40;;;;;;;;;;4997754;28;20465;-66
2023/04/18 12:40:07;;;;;;;19.30;9.90;;;;;;;;;;4999181;28;20523;-67
2023/04/18 12:42:32;;;;;;;19.35;9.85;;;;;;;;;;4993568;28;20029;-66
2023/04/18 12:45:02;;;;;;;20.38;9.63;;;;;;;;;;5001927;28;20112;-66
2023/04/18 12:47:27;;;;;;;16.25;9.02;;;;;;;;;;4989494;28;20101;-65
2023/04/18 12:49:52;;;;;;;19.52;10.30;;;;;;;;;;4994530;28;20141;-67
2023/04/18 12:52:18;;;;;;;24.33;9.68;;;;;;;;;;4996659;28;20037;-66
2023/04/18 12:54:43;;;;;;;19.58;10.25;;;;;;;;;;4994006;28;20069;-63
2023/04/18 12:57:08;;;;;;;17.60;10.38;;;;;;;;;;4999871;28;20195;-66
2023/04/18 12:59:33;;;;;;;15.45;9.40;;;;;;;;;;5001605;28;20144;-65
2023/04/18 13:01:58;;;;;;;17.98;10.25;;;;;;;;;;4998386;28;20115;-65
2023/04/18 13:04:24;;;;;;;18.17;8.50;;;;;;;;;;4994851;28;20036;-63
2023/04/18 13:06:49;;;;;;;18.77;10.73;;;;;;;;;;4997477;28;20018;-65
2023/04/18 13:09:15;;;;;;;17.13;9.88;;;;;;;;;;5003723;28;20040;-60
2023/04/18 13:11:40;;;;;;;15.98;9.68;;;;;;;;;;5001703;28;20025;-65
2023/04/18 13:14:06;;;;;;;17.67;10.15;;;;;;;;;;5000364;28;20806;-65
2023/04/18 13:16:31;;;;;;;20.40;10.35;;;;;;;;;;5000168;28;20032;-65
2023/04/18 13:18:56;;;;;;;21.17;8.45;;;;;;;;;;4999803;28;20117;-64
2023/04/18 13:21:24;;;;;;;18.70;9.98;;;;;;;;;;5003102;28;20029;-64
2023/04/18 13:23:50;;;;;;;16.65;9.43;;;;;;;;;;5004304;28;20809;-64
2023/04/18 13:26:15;;;;;;;15.95;9.18;;;;;;;;;;4999998;28;20033;-64
2023/04/18 13:28:40;;;;;;;17.77;10.63;;;;;;;;;;5001498;28;20024;-65
2023/04/18 13:31:05;;;;;;;21.30;10.82;;;;;;;;;;5005182;28;20052;-66
2023/04/18 13:33:30;;;;;;;17.80;9.18;;;;;;;;;;4998778;28;20061;-67
2023/04/18 13:35:56;;;;;;;15.02;8.75;;;;;;;;;;4999965;28;20514;-67
2023/04/18 13:38:21;;;;;;;19.83;10.15;;;;;;;;;;4998139;28;21067;-64
2023/04/18 13:40:46;;;;;;;16.08;9.95;;;;;;;;;;5005321;28;20014;-65
2023/04/18 13:43:12;;;;;;;20.42;10.00;;;;;;;;;;5000536;28;20760;-66
2023/04/18 13:45:37;;;;;;;21.45;10.98;;;;;;;;;;5000360;28;20022;-67
2023/04/18 13:48:03;;;;;;;22.63;11.90;;;;;;;;;;4998644;28;20021;-67
2023/04/18 13:50:28;;;;;;;20.10;9.95;;;;;;;;;;5003821;28;20022;-66
2023/04/18 13:52:53;;;;;;;22.00;12.77;;;;;;;;;;5000000;28;20046;-66
2023/04/18 13:55:19;;;;;;;21.17;10.50;;;;;;;;;;4996925;28;20174;-66
2023/04/18 13:57:44;;;;;;;14.90;9.48;;;;;;;;;;4997718;28;20022;-64
2023/04/18 14:00:12;;;;;;;18.15;10.15;;;;;;;;;;5012100;28;20014;-66
2023/04/18 14:02:37;;;;;;;17.38;9.82;;;;;;;;;;4994418;28;20038;-65
2023/04/18 14:05:03;;;;;;;21.20;11.00;;;;;;;;;;4998880;28;20037;-63
2023/04/18 14:07:28;;;;;;;18.30;10.25;;;;;;;;;;4993193;28;20072;-65
2023/04/18 14:09:53;;;;;;;21.58;11.70;;;;;;;;;;5005572;28;20045;-66
2023/04/18 14:12:19;;;;;;;23.73;11.40;;;;;;;;;;4998499;28;20265;-63
2023/04/18 14:14:44;;;;;;;19.88;9.13;;;;;;;;;;4999691;28;20022;-65
2023/04/18 14:17:09;;;;;;;16.55;9.65;;;;;;;;;;4997775;28;20040;-68
2023/04/18 14:19:34;;;;;;;18.92;10.27;;;;;;;;;;5011373;28;20486;-65